Manhattan Beach, CA (90266)

3:14 AM PDT on July 23, 2016 (GMT -0700)
Tree Section | | Change Station

Elev 133 ft 33.89 °N, 118.40 °W | Updated 9 seconds ago

Mostly Cloudy
Mostly Cloudy
71.2 °F
Feels Like 75 °F
N
0.0
Wind Variable Wind from WSW
Gusts 0.0 mph

Today
High -- | Low -- °F
--% Chance of Precip.
Yesterday
High -- | Low -- °F
Precip. -- in
Pressure 29.80 in
Visibility 10.0 miles
Clouds Few 1500 ft
Mostly Cloudy 4000 ft
Heat Index 75 °F
Dew Point 60 °F
Humidity 67%
Rainfall 0.00 in
Snow Depth Not available.
5:59 AM 8:00 PM
Waning Gibbous, 86% visible
METAR KLAX 230953Z 11006KT 10SM FEW015 BKN040 23/16 A2980 RMK AO2 SLP089 FU FEW015 T02280156
Pressure 29.80 in
Visibility 10.0 miles
Clouds Few 1500 ft
Mostly Cloudy 4000 ft
Heat Index 75 °F
Dew Point 60 °F
Humidity 67%
Rainfall 0.00 in
Snow Depth Not available.
5:59 AM 8:00 PM
Waning Gibbous, 86% visible
METAR KLAX 230953Z 11006KT 10SM FEW015 BKN040 23/16 A2980 RMK AO2 SLP089 FU FEW015 T02280156

10-Day Weather Forecast

Almanac

Astronomy

Jul. 23, 2016 Rise Set
Actual Time
Civil Twilight
Nautical Twilight
Astronomical Twilight
Moon
Length of Visible Light
Length of Day
Tomorrow will be .
, % of the Moon is Illuminated

Today's Extremes

State Highs State Lows

Community

WunderPhotos

Upload Photos

1,926,789 photos uploaded!

WunderBlog® & News

Nearby

Air Quality

  Air Quality AQ Index Pollutant
Not available.

Snow Depth

Station Depth Elevation

Earthquake Activity

City Distance Mag. Time & Date
Minimum magnitude displayed is 2.5.

Coastal Water Temperatures

Place Temperature

Stations

Nearby Weather Stations

Station Location Temp. Windchill Dew Point Humidity Wind Precip. Elev Updated Type
                   

Watches & Warnings

There are currently no watches in effect.